100LL.CA
Aviation Fuel Pricing for Canadians
Please upgrade your browser - Tested with IE9, FireFox, Chrome, Safari

Fuel Airports Other Help
Prices Economy Info List METAR/TAF Kneeboard Help

Reference Airport: FORT ST.JOHN, BC
N 56 14 18  W 120 44 25
Provinces to show:

CYXJ FORT ST.JOHN, BC
WEATHER
METARCYXJ 230400Z 24016G28KT 15SM BKN200 03/M06 A2982 RMK CI5 SLP129
TAFTAF CYXJ 230040Z 2301/2313 23015G25KT P6SM BKN240 BECMG 2303/2305 23020KT RMK NXT FCST BY 230700Z
OTHER SITES

FlightAware

FltPlan

Google Maps

SkyVector
FUEL
FBO 100LL
member
100LL
public
JETA MOGAS
Executive Flight Center (2024-02-26)2.5442.210
  Note: http://www.efcaviation.ca/
Canada Flight Supplement - CYXJ
(opens in new tab/window)


Please Send Updates!

Desktop Version ]  [ Mobile Version ]  [ Disclaimer ]